sensor_id;sensor_type;location;lat;lon;timestamp;temperature;humidity
12632;DHT22;6381;45.748;12.106;2022-09-03T00:00:31;21.60;94.70
12632;DHT22;6381;45.748;12.106;2022-09-03T00:03:05;21.70;94.00
12632;DHT22;6381;45.748;12.106;2022-09-03T00:05:38;21.70;93.80
12632;DHT22;6381;45.748;12.106;2022-09-03T00:08:14;21.70;93.70
12632;DHT22;6381;45.748;12.106;2022-09-03T00:10:55;21.80;93.50
12632;DHT22;6381;45.748;12.106;2022-09-03T00:13:29;21.60;93.60
12632;DHT22;6381;45.748;12.106;2022-09-03T00:16:04;21.60;93.60
12632;DHT22;6381;45.748;12.106;2022-09-03T00:18:43;21.50;93.70
12632;DHT22;6381;45.748;12.106;2022-09-03T00:21:18;21.50;93.90
12632;DHT22;6381;45.748;12.106;2022-09-03T00:23:50;21.50;93.80
12632;DHT22;6381;45.748;12.106;2022-09-03T00:26:27;21.40;93.60
12632;DHT22;6381;45.748;12.106;2022-09-03T00:29:01;21.30;93.60
12632;DHT22;6381;45.748;12.106;2022-09-03T00:31:34;21.30;93.30
12632;DHT22;6381;45.748;12.106;2022-09-03T00:34:10;21.30;93.20
12632;DHT22;6381;45.748;12.106;2022-09-03T00:36:43;21.20;93.30
12632;DHT22;6381;45.748;12.106;2022-09-03T00:39:15;21.30;92.60
12632;DHT22;6381;45.748;12.106;2022-09-03T00:42:02;21.00;92.10
12632;DHT22;6381;45.748;12.106;2022-09-03T00:44:52;20.80;92.40
12632;DHT22;6381;45.748;12.106;2022-09-03T00:47:31;20.90;92.40
12632;DHT22;6381;45.748;12.106;2022-09-03T00:50:07;21.00;92.70
12632;DHT22;6381;45.748;12.106;2022-09-03T00:52:46;21.10;91.90
12632;DHT22;6381;45.748;12.106;2022-09-03T00:55:26;21.10;91.70
12632;DHT22;6381;45.748;12.106;2022-09-03T01:00:58;21.20;91.30
12632;DHT22;6381;45.748;12.106;2022-09-03T01:03:37;21.30;91.30
12632;DHT22;6381;45.748;12.106;2022-09-03T01:06:16;21.40;91.20
12632;DHT22;6381;45.748;12.106;2022-09-03T01:08:58;21.30;90.90
12632;DHT22;6381;45.748;12.106;2022-09-03T01:11:39;21.20;90.90
12632;DHT22;6381;45.748;12.106;2022-09-03T01:14:28;21.20;91.00
12632;DHT22;6381;45.748;12.106;2022-09-03T01:17:07;21.10;90.60
12632;DHT22;6381;45.748;12.106;2022-09-03T01:26:24;21.10;91.10
12632;DHT22;6381;45.748;12.106;2022-09-03T01:29:05;21.30;91.10
12632;DHT22;6381;45.748;12.106;2022-09-03T01:31:44;21.20;90.80
12632;DHT22;6381;45.748;12.106;2022-09-03T01:34:22;21.30;90.70
12632;DHT22;6381;45.748;12.106;2022-09-03T01:37:00;21.40;90.60
12632;DHT22;6381;45.748;12.106;2022-09-03T01:39:40;21.50;90.40
12632;DHT22;6381;45.748;12.106;2022-09-03T01:42:21;21.30;90.10
12632;DHT22;6381;45.748;12.106;2022-09-03T01:45:12;21.40;90.50
12632;DHT22;6381;45.748;12.106;2022-09-03T01:48:02;21.30;90.70
12632;DHT22;6381;45.748;12.106;2022-09-03T01:50:42;21.30;90.70
12632;DHT22;6381;45.748;12.106;2022-09-03T01:53:24;21.30;90.60
12632;DHT22;6381;45.748;12.106;2022-09-03T01:56:09;21.20;91.10
12632;DHT22;6381;45.748;12.106;2022-09-03T01:58:44;21.20;91.40
12632;DHT22;6381;45.748;12.106;2022-09-03T02:01:23;21.20;91.60
12632;DHT22;6381;45.748;12.106;2022-09-03T02:03:55;21.30;91.40
12632;DHT22;6381;45.748;12.106;2022-09-03T02:06:27;21.10;91.10
12632;DHT22;6381;45.748;12.106;2022-09-03T02:08:59;21.10;91.60
12632;DHT22;6381;45.748;12.106;2022-09-03T02:11:28;21.30;91.60
12632;DHT22;6381;45.748;12.106;2022-09-03T02:13:59;21.30;91.10
12632;DHT22;6381;45.748;12.106;2022-09-03T02:16:33;21.30;91.10
12632;DHT22;6381;45.748;12.106;2022-09-03T02:19:04;21.40;90.80
12632;DHT22;6381;45.748;12.106;2022-09-03T02:21:39;21.40;90.40
12632;DHT22;6381;45.748;12.106;2022-09-03T02:24:12;21.20;90.50
12632;DHT22;6381;45.748;12.106;2022-09-03T02:26:41;21.30;90.50
12632;DHT22;6381;45.748;12.106;2022-09-03T02:29:12;21.30;90.30
12632;DHT22;6381;45.748;12.106;2022-09-03T02:31:43;21.20;90.30
12632;DHT22;6381;45.748;12.106;2022-09-03T02:34:13;21.10;90.50
12632;DHT22;6381;45.748;12.106;2022-09-03T02:36:45;21.10;90.50
12632;DHT22;6381;45.748;12.106;2022-09-03T02:39:15;21.10;90.50
12632;DHT22;6381;45.748;12.106;2022-09-03T02:41:50;21.30;90.30
12632;DHT22;6381;45.748;12.106;2022-09-03T02:44:26;21.30;90.30
12632;DHT22;6381;45.748;12.106;2022-09-03T02:47:01;21.30;90.00
12632;DHT22;6381;45.748;12.106;2022-09-03T02:49:31;21.20;90.40
12632;DHT22;6381;45.748;12.106;2022-09-03T02:52:03;21.20;90.40
12632;DHT22;6381;45.748;12.106;2022-09-03T02:54:33;21.10;90.60
12632;DHT22;6381;45.748;12.106;2022-09-03T02:57:07;21.20;90.70
12632;DHT22;6381;45.748;12.106;2022-09-03T02:59:37;21.20;90.40
12632;DHT22;6381;45.748;12.106;2022-09-03T03:02:10;21.10;90.50
12632;DHT22;6381;45.748;12.106;2022-09-03T03:04:39;21.00;90.60
12632;DHT22;6381;45.748;12.106;2022-09-03T03:07:09;21.10;90.40
12632;DHT22;6381;45.748;12.106;2022-09-03T03:09:38;21.00;90.50
12632;DHT22;6381;45.748;12.106;2022-09-03T03:12:08;20.80;90.60
12632;DHT22;6381;45.748;12.106;2022-09-03T03:14:38;20.80;90.70
12632;DHT22;6381;45.748;12.106;2022-09-03T03:17:09;20.80;90.60
12632;DHT22;6381;45.748;12.106;2022-09-03T03:19:38;20.70;90.80
12632;DHT22;6381;45.748;12.106;2022-09-03T03:22:08;20.70;91.10
12632;DHT22;6381;45.748;12.106;2022-09-03T03:24:37;20.70;90.70
12632;DHT22;6381;45.748;12.106;2022-09-03T03:27:07;20.70;91.00
12632;DHT22;6381;45.748;12.106;2022-09-03T03:29:38;20.60;90.80
12632;DHT22;6381;45.748;12.106;2022-09-03T03:32:09;20.60;90.90
12632;DHT22;6381;45.748;12.106;2022-09-03T03:34:38;20.50;91.30
12632;DHT22;6381;45.748;12.106;2022-09-03T03:37:09;20.60;91.20
12632;DHT22;6381;45.748;12.106;2022-09-03T03:39:39;20.50;91.20
12632;DHT22;6381;45.748;12.106;2022-09-03T03:42:08;20.50;91.40
12632;DHT22;6381;45.748;12.106;2022-09-03T03:44:38;20.50;91.30
12632;DHT22;6381;45.748;12.106;2022-09-03T03:47:10;20.50;91.40
12632;DHT22;6381;45.748;12.106;2022-09-03T03:49:40;20.50;91.30
12632;DHT22;6381;45.748;12.106;2022-09-03T03:52:10;20.40;91.30
12632;DHT22;6381;45.748;12.106;2022-09-03T03:54:39;20.20;91.50
12632;DHT22;6381;45.748;12.106;2022-09-03T03:57:09;20.40;91.90
12632;DHT22;6381;45.748;12.106;2022-09-03T03:59:38;20.40;91.30
12632;DHT22;6381;45.748;12.106;2022-09-03T04:02:09;20.40;91.30
12632;DHT22;6381;45.748;12.106;2022-09-03T04:04:39;20.30;91.70
12632;DHT22;6381;45.748;12.106;2022-09-03T04:07:09;20.40;91.50
12632;DHT22;6381;45.748;12.106;2022-09-03T04:09:38;20.40;91.60
12632;DHT22;6381;45.748;12.106;2022-09-03T04:12:08;20.40;91.80
12632;DHT22;6381;45.748;12.106;2022-09-03T04:14:37;20.20;91.90
12632;DHT22;6381;45.748;12.106;2022-09-03T04:17:07;20.20;92.20
12632;DHT22;6381;45.748;12.106;2022-09-03T04:19:38;20.20;92.10
12632;DHT22;6381;45.748;12.106;2022-09-03T04:22:07;20.10;92.20
12632;DHT22;6381;45.748;12.106;2022-09-03T04:24:37;20.10;92.20
12632;DHT22;6381;45.748;12.106;2022-09-03T04:27:06;20.20;92.30
12632;DHT22;6381;45.748;12.106;2022-09-03T04:29:36;20.30;92.00
12632;DHT22;6381;45.748;12.106;2022-09-03T04:32:06;20.30;92.00
12632;DHT22;6381;45.748;12.106;2022-09-03T04:34:53;20.20;91.90
12632;DHT22;6381;45.748;12.106;2022-09-03T04:37:24;20.20;92.20
12632;DHT22;6381;45.748;12.106;2022-09-03T04:39:53;20.20;92.00
12632;DHT22;6381;45.748;12.106;2022-09-03T04:42:23;20.30;91.90
12632;DHT22;6381;45.748;12.106;2022-09-03T04:44:52;20.30;91.90
12632;DHT22;6381;45.748;12.106;2022-09-03T04:47:22;20.30;91.60
12632;DHT22;6381;45.748;12.106;2022-09-03T04:49:53;20.40;92.00
12632;DHT22;6381;45.748;12.106;2022-09-03T04:52:22;20.30;92.10
12632;DHT22;6381;45.748;12.106;2022-09-03T04:54:52;20.40;92.10
12632;DHT22;6381;45.748;12.106;2022-09-03T04:57:21;20.40;92.10
12632;DHT22;6381;45.748;12.106;2022-09-03T04:59:51;20.50;92.20
12632;DHT22;6381;45.748;12.106;2022-09-03T05:02:20;20.70;92.10
12632;DHT22;6381;45.748;12.106;2022-09-03T05:04:50;20.60;91.90
12632;DHT22;6381;45.748;12.106;2022-09-03T05:07:23;20.70;91.40
12632;DHT22;6381;45.748;12.106;2022-09-03T05:09:55;20.50;91.10
12632;DHT22;6381;45.748;12.106;2022-09-03T05:12:25;20.60;91.20
12632;DHT22;6381;45.748;12.106;2022-09-03T05:14:54;20.60;91.50
12632;DHT22;6381;45.748;12.106;2022-09-03T05:17:24;20.60;91.60
12632;DHT22;6381;45.748;12.106;2022-09-03T05:19:53;20.80;91.40
12632;DHT22;6381;45.748;12.106;2022-09-03T05:22:24;20.80;91.50
12632;DHT22;6381;45.748;12.106;2022-09-03T05:24:54;20.90;91.00
12632;DHT22;6381;45.748;12.106;2022-09-03T05:27:23;20.90;90.70
12632;DHT22;6381;45.748;12.106;2022-09-03T05:29:53;20.90;90.50
12632;DHT22;6381;45.748;12.106;2022-09-03T05:32:22;20.90;90.50
12632;DHT22;6381;45.748;12.106;2022-09-03T05:34:52;20.80;90.80
12632;DHT22;6381;45.748;12.106;2022-09-03T05:37:21;20.90;90.60
12632;DHT22;6381;45.748;12.106;2022-09-03T05:39:52;20.70;90.90
12632;DHT22;6381;45.748;12.106;2022-09-03T05:42:22;20.80;91.00
12632;DHT22;6381;45.748;12.106;2022-09-03T05:44:52;20.90;90.70
12632;DHT22;6381;45.748;12.106;2022-09-03T05:47:22;20.90;90.70
12632;DHT22;6381;45.748;12.106;2022-09-03T05:49:51;21.00;90.70
12632;DHT22;6381;45.748;12.106;2022-09-03T05:52:23;21.00;90.70
12632;DHT22;6381;45.748;12.106;2022-09-03T05:54:54;21.00;90.70
12632;DHT22;6381;45.748;12.106;2022-09-03T05:57:24;21.10;90.70
12632;DHT22;6381;45.748;12.106;2022-09-03T05:59:53;21.20;90.50
12632;DHT22;6381;45.748;12.106;2022-09-03T06:02:22;21.30;90.50
12632;DHT22;6381;45.748;12.106;2022-09-03T06:04:52;21.30;90.50
12632;DHT22;6381;45.748;12.106;2022-09-03T06:07:23;21.30;90.70
12632;DHT22;6381;45.748;12.106;2022-09-03T06:09:55;21.40;90.60
12632;DHT22;6381;45.748;12.106;2022-09-03T06:12:25;21.50;90.40
12632;DHT22;6381;45.748;12.106;2022-09-03T06:14:54;21.60;90.40
12632;DHT22;6381;45.748;12.106;2022-09-03T06:17:24;21.70;90.30
12632;DHT22;6381;45.748;12.106;2022-09-03T06:19:53;21.70;89.40
12632;DHT22;6381;45.748;12.106;2022-09-03T06:22:23;21.70;89.70
12632;DHT22;6381;45.748;12.106;2022-09-03T06:24:56;21.70;89.00
12632;DHT22;6381;45.748;12.106;2022-09-03T06:27:28;21.80;88.40
12632;DHT22;6381;45.748;12.106;2022-09-03T06:29:57;21.80;88.70
12632;DHT22;6381;45.748;12.106;2022-09-03T06:32:27;21.90;88.30
12632;DHT22;6381;45.748;12.106;2022-09-03T06:34:56;22.00;87.20
12632;DHT22;6381;45.748;12.106;2022-09-03T06:37:26;22.00;87.40
12632;DHT22;6381;45.748;12.106;2022-09-03T06:39:56;22.20;87.80
12632;DHT22;6381;45.748;12.106;2022-09-03T06:42:26;22.30;86.30
12632;DHT22;6381;45.748;12.106;2022-09-03T06:44:56;22.30;85.20
12632;DHT22;6381;45.748;12.106;2022-09-03T06:47:25;22.40;84.70
12632;DHT22;6381;45.748;12.106;2022-09-03T06:49:56;22.30;85.40
12632;DHT22;6381;45.748;12.106;2022-09-03T06:52:27;22.40;84.90
12632;DHT22;6381;45.748;12.106;2022-09-03T06:54:58;22.40;84.90
12632;DHT22;6381;45.748;12.106;2022-09-03T06:57:27;22.40;84.30
12632;DHT22;6381;45.748;12.106;2022-09-03T06:59:57;22.40;84.70
12632;DHT22;6381;45.748;12.106;2022-09-03T07:02:27;22.50;83.80
12632;DHT22;6381;45.748;12.106;2022-09-03T07:04:56;22.40;84.60
12632;DHT22;6381;45.748;12.106;2022-09-03T07:07:26;22.70;83.20
12632;DHT22;6381;45.748;12.106;2022-09-03T07:09:56;22.60;81.60
12632;DHT22;6381;45.748;12.106;2022-09-03T07:12:26;22.70;82.50
12632;DHT22;6381;45.748;12.106;2022-09-03T07:14:55;22.80;82.50
12632;DHT22;6381;45.748;12.106;2022-09-03T07:17:26;22.80;80.70
12632;DHT22;6381;45.748;12.106;2022-09-03T07:19:56;22.90;80.80
12632;DHT22;6381;45.748;12.106;2022-09-03T07:22:25;23.00;81.10
12632;DHT22;6381;45.748;12.106;2022-09-03T07:24:59;22.80;81.30
12632;DHT22;6381;45.748;12.106;2022-09-03T07:27:29;22.80;80.30
12632;DHT22;6381;45.748;12.106;2022-09-03T07:29:58;22.50;81.70
12632;DHT22;6381;45.748;12.106;2022-09-03T07:32:28;22.60;81.60
12632;DHT22;6381;45.748;12.106;2022-09-03T07:34:57;22.70;81.80
12632;DHT22;6381;45.748;12.106;2022-09-03T07:37:27;22.70;81.70
12632;DHT22;6381;45.748;12.106;2022-09-03T07:39:56;22.80;82.60
12632;DHT22;6381;45.748;12.106;2022-09-03T07:42:28;22.90;81.60
12632;DHT22;6381;45.748;12.106;2022-09-03T07:44:57;23.10;81.70
12632;DHT22;6381;45.748;12.106;2022-09-03T07:47:27;23.10;81.70
12632;DHT22;6381;45.748;12.106;2022-09-03T07:49:57;23.20;80.70
12632;DHT22;6381;45.748;12.106;2022-09-03T07:52:27;23.10;81.10
12632;DHT22;6381;45.748;12.106;2022-09-03T07:54:56;23.10;81.80
12632;DHT22;6381;45.748;12.106;2022-09-03T07:57:27;23.00;83.10
12632;DHT22;6381;45.748;12.106;2022-09-03T07:59:57;23.30;82.80
12632;DHT22;6381;45.748;12.106;2022-09-03T08:02:26;23.50;82.00
12632;DHT22;6381;45.748;12.106;2022-09-03T08:04:56;23.60;82.20
12632;DHT22;6381;45.748;12.106;2022-09-03T08:07:25;23.80;80.80
12632;DHT22;6381;45.748;12.106;2022-09-03T08:09:57;23.90;79.30
12632;DHT22;6381;45.748;12.106;2022-09-03T08:12:30;24.00;79.90
12632;DHT22;6381;45.748;12.106;2022-09-03T08:15:00;23.90;80.90
12632;DHT22;6381;45.748;12.106;2022-09-03T08:17:30;23.70;78.50
12632;DHT22;6381;45.748;12.106;2022-09-03T08:20:03;23.80;80.40
12632;DHT22;6381;45.748;12.106;2022-09-03T08:22:32;24.10;81.90
12632;DHT22;6381;45.748;12.106;2022-09-03T08:25:02;24.20;80.90
12632;DHT22;6381;45.748;12.106;2022-09-03T08:27:33;24.10;81.60
12632;DHT22;6381;45.748;12.106;2022-09-03T08:30:03;24.00;83.10
12632;DHT22;6381;45.748;12.106;2022-09-03T08:32:34;24.00;84.60
12632;DHT22;6381;45.748;12.106;2022-09-03T08:35:05;24.20;83.60
12632;DHT22;6381;45.748;12.106;2022-09-03T08:37:36;24.10;85.50
12632;DHT22;6381;45.748;12.106;2022-09-03T08:40:07;24.10;83.60
12632;DHT22;6381;45.748;12.106;2022-09-03T08:42:46;24.50;83.50
12632;DHT22;6381;45.748;12.106;2022-09-03T08:45:18;24.50;84.90
12632;DHT22;6381;45.748;12.106;2022-09-03T08:47:54;24.30;84.20
12632;DHT22;6381;45.748;12.106;2022-09-03T08:50:28;24.50;83.50
12632;DHT22;6381;45.748;12.106;2022-09-03T08:53:02;24.60;82.70
12632;DHT22;6381;45.748;12.106;2022-09-03T08:55:35;24.70;83.10
12632;DHT22;6381;45.748;12.106;2022-09-03T08:58:12;24.70;82.20
12632;DHT22;6381;45.748;12.106;2022-09-03T09:00:48;24.90;82.70
12632;DHT22;6381;45.748;12.106;2022-09-03T09:03:41;24.80;80.90
12632;DHT22;6381;45.748;12.106;2022-09-03T09:06:20;24.90;81.50
12632;DHT22;6381;45.748;12.106;2022-09-03T09:09:01;24.90;80.80
12632;DHT22;6381;45.748;12.106;2022-09-03T09:11:45;24.60;79.80
12632;DHT22;6381;45.748;12.106;2022-09-03T09:14:24;24.80;81.40
12632;DHT22;6381;45.748;12.106;2022-09-03T09:17:03;24.90;82.20
12632;DHT22;6381;45.748;12.106;2022-09-03T09:19:43;25.00;80.40
12632;DHT22;6381;45.748;12.106;2022-09-03T09:22:24;25.20;80.10
12632;DHT22;6381;45.748;12.106;2022-09-03T09:24:55;25.30;80.30
12632;DHT22;6381;45.748;12.106;2022-09-03T09:27:27;25.20;79.60
12632;DHT22;6381;45.748;12.106;2022-09-03T09:30:03;24.90;77.70
12632;DHT22;6381;45.748;12.106;2022-09-03T09:32:33;24.70;78.30
12632;DHT22;6381;45.748;12.106;2022-09-03T09:35:08;24.90;79.30
12632;DHT22;6381;45.748;12.106;2022-09-03T09:37:47;24.90;77.90
12632;DHT22;6381;45.748;12.106;2022-09-03T09:40:29;25.20;79.30
12632;DHT22;6381;45.748;12.106;2022-09-03T09:43:08;25.70;81.40
12632;DHT22;6381;45.748;12.106;2022-09-03T09:45:41;25.90;77.40
12632;DHT22;6381;45.748;12.106;2022-09-03T09:48:18;25.40;76.00
12632;DHT22;6381;45.748;12.106;2022-09-03T09:50:49;25.30;76.60
12632;DHT22;6381;45.748;12.106;2022-09-03T09:53:31;25.60;75.50
12632;DHT22;6381;45.748;12.106;2022-09-03T09:56:02;25.90;74.70
12632;DHT22;6381;45.748;12.106;2022-09-03T09:58:33;25.80;73.50
12632;DHT22;6381;45.748;12.106;2022-09-03T10:01:11;25.60;72.10
12632;DHT22;6381;45.748;12.106;2022-09-03T10:03:48;26.30;76.90
12632;DHT22;6381;45.748;12.106;2022-09-03T10:06:22;26.70;76.50
12632;DHT22;6381;45.748;12.106;2022-09-03T10:09:11;26.90;72.70
12632;DHT22;6381;45.748;12.106;2022-09-03T10:11:44;26.90;73.10
12632;DHT22;6381;45.748;12.106;2022-09-03T10:14:22;27.20;71.00
12632;DHT22;6381;45.748;12.106;2022-09-03T10:16:59;27.60;69.90
12632;DHT22;6381;45.748;12.106;2022-09-03T10:19:41;27.20;75.00
12632;DHT22;6381;45.748;12.106;2022-09-03T10:22:33;26.90;70.40
12632;DHT22;6381;45.748;12.106;2022-09-03T10:25:25;26.60;68.80
12632;DHT22;6381;45.748;12.106;2022-09-03T10:27:56;26.50;67.80
12632;DHT22;6381;45.748;12.106;2022-09-03T10:30:29;26.20;67.50
12632;DHT22;6381;45.748;12.106;2022-09-03T10:33:15;26.40;69.80
12632;DHT22;6381;45.748;12.106;2022-09-03T10:35:49;26.80;70.90
12632;DHT22;6381;45.748;12.106;2022-09-03T10:38:25;26.60;69.10
12632;DHT22;6381;45.748;12.106;2022-09-03T10:41:06;26.60;70.50
12632;DHT22;6381;45.748;12.106;2022-09-03T10:43:55;26.80;69.50
12632;DHT22;6381;45.748;12.106;2022-09-03T10:46:30;26.20;67.40
12632;DHT22;6381;45.748;12.106;2022-09-03T10:49:29;26.20;70.30
12632;DHT22;6381;45.748;12.106;2022-09-03T10:52:05;26.40;69.50
12632;DHT22;6381;45.748;12.106;2022-09-03T10:54:48;25.60;68.70
12632;DHT22;6381;45.748;12.106;2022-09-03T10:57:30;26.00;68.50
12632;DHT22;6381;45.748;12.106;2022-09-03T11:00:04;26.60;68.00
12632;DHT22;6381;45.748;12.106;2022-09-03T11:02:53;26.90;70.00
12632;DHT22;6381;45.748;12.106;2022-09-03T11:05:30;27.00;68.70
12632;DHT22;6381;45.748;12.106;2022-09-03T11:08:08;27.60;70.60
12632;DHT22;6381;45.748;12.106;2022-09-03T11:10:43;27.50;67.50
12632;DHT22;6381;45.748;12.106;2022-09-03T11:13:19;27.10;66.10
12632;DHT22;6381;45.748;12.106;2022-09-03T11:15:52;26.90;65.80
12632;DHT22;6381;45.748;12.106;2022-09-03T11:18:26;26.80;64.60
12632;DHT22;6381;45.748;12.106;2022-09-03T11:21:00;26.10;63.50
12632;DHT22;6381;45.748;12.106;2022-09-03T11:23:41;26.20;64.00
12632;DHT22;6381;45.748;12.106;2022-09-03T11:26:14;27.10;62.50
12632;DHT22;6381;45.748;12.106;2022-09-03T11:28:55;28.10;63.70
12632;DHT22;6381;45.748;12.106;2022-09-03T11:31:36;28.40;61.30
12632;DHT22;6381;45.748;12.106;2022-09-03T11:34:11;28.20;60.10
12632;DHT22;6381;45.748;12.106;2022-09-03T11:36:51;27.90;60.30
12632;DHT22;6381;45.748;12.106;2022-09-03T11:39:34;27.70;60.40
12632;DHT22;6381;45.748;12.106;2022-09-03T11:42:09;28.00;59.80
12632;DHT22;6381;45.748;12.106;2022-09-03T11:44:42;27.80;58.30
12632;DHT22;6381;45.748;12.106;2022-09-03T11:47:22;27.20;59.30
12632;DHT22;6381;45.748;12.106;2022-09-03T11:49:52;27.00;59.80
12632;DHT22;6381;45.748;12.106;2022-09-03T11:52:34;27.40;59.20
12632;DHT22;6381;45.748;12.106;2022-09-03T11:55:07;27.50;59.10
12632;DHT22;6381;45.748;12.106;2022-09-03T11:57:40;27.80;58.80
12632;DHT22;6381;45.748;12.106;2022-09-03T12:00:13;27.90;58.90
12632;DHT22;6381;45.748;12.106;2022-09-03T12:02:46;28.10;59.00
12632;DHT22;6381;45.748;12.106;2022-09-03T12:05:26;28.80;58.50
12632;DHT22;6381;45.748;12.106;2022-09-03T12:08:37;28.70;56.60
12632;DHT22;6381;45.748;12.106;2022-09-03T12:11:24;28.50;56.90
12632;DHT22;6381;45.748;12.106;2022-09-03T12:14:03;29.90;58.90
12632;DHT22;6381;45.748;12.106;2022-09-03T12:16:58;30.10;54.80
12632;DHT22;6381;45.748;12.106;2022-09-03T12:19:36;28.70;57.70
12632;DHT22;6381;45.748;12.106;2022-09-03T12:22:11;28.20;58.00
12632;DHT22;6381;45.748;12.106;2022-09-03T12:24:44;28.70;56.80
12632;DHT22;6381;45.748;12.106;2022-09-03T12:27:17;29.20;58.20
12632;DHT22;6381;45.748;12.106;2022-09-03T12:29:56;29.10;57.00
12632;DHT22;6381;45.748;12.106;2022-09-03T12:32:28;28.90;56.90
12632;DHT22;6381;45.748;12.106;2022-09-03T12:35:10;28.50;56.70
12632;DHT22;6381;45.748;12.106;2022-09-03T12:37:42;27.80;59.30
12632;DHT22;6381;45.748;12.106;2022-09-03T12:40:39;27.40;58.10
12632;DHT22;6381;45.748;12.106;2022-09-03T12:43:30;27.40;58.60
12632;DHT22;6381;45.748;12.106;2022-09-03T12:46:12;27.40;59.50
12632;DHT22;6381;45.748;12.106;2022-09-03T12:48:51;27.40;58.70
12632;DHT22;6381;45.748;12.106;2022-09-03T12:51:42;27.50;61.10
12632;DHT22;6381;45.748;12.106;2022-09-03T12:54:18;28.20;59.80
12632;DHT22;6381;45.748;12.106;2022-09-03T12:56:57;28.20;60.00
12632;DHT22;6381;45.748;12.106;2022-09-03T12:59:30;27.50;59.40
12632;DHT22;6381;45.748;12.106;2022-09-03T13:02:02;27.80;59.50
12632;DHT22;6381;45.748;12.106;2022-09-03T13:04:35;29.00;57.00
12632;DHT22;6381;45.748;12.106;2022-09-03T13:07:12;28.50;57.00
12632;DHT22;6381;45.748;12.106;2022-09-03T13:09:45;28.70;58.00
12632;DHT22;6381;45.748;12.106;2022-09-03T13:12:29;29.90;57.50
12632;DHT22;6381;45.748;12.106;2022-09-03T13:15:06;30.10;55.00
12632;DHT22;6381;45.748;12.106;2022-09-03T13:18:00;29.80;54.80
12632;DHT22;6381;45.748;12.106;2022-09-03T13:20:40;29.70;55.00
12632;DHT22;6381;45.748;12.106;2022-09-03T13:23:33;29.50;54.80
12632;DHT22;6381;45.748;12.106;2022-09-03T13:26:13;29.70;54.60
12632;DHT22;6381;45.748;12.106;2022-09-03T13:29:00;29.50;54.60
12632;DHT22;6381;45.748;12.106;2022-09-03T13:31:40;30.10;54.70
12632;DHT22;6381;45.748;12.106;2022-09-03T13:34:17;31.40;56.00
12632;DHT22;6381;45.748;12.106;2022-09-03T13:36:52;31.80;54.80
12632;DHT22;6381;45.748;12.106;2022-09-03T13:39:27;32.40;54.60
12632;DHT22;6381;45.748;12.106;2022-09-03T13:42:04;31.00;51.00
12632;DHT22;6381;45.748;12.106;2022-09-03T13:44:41;29.30;52.10
12632;DHT22;6381;45.748;12.106;2022-09-03T13:47:27;28.40;54.30
12632;DHT22;6381;45.748;12.106;2022-09-03T13:50:05;29.00;54.90
12632;DHT22;6381;45.748;12.106;2022-09-03T13:52:53;29.70;56.20
12632;DHT22;6381;45.748;12.106;2022-09-03T13:55:31;28.70;54.70
12632;DHT22;6381;45.748;12.106;2022-09-03T13:58:05;28.10;56.00
12632;DHT22;6381;45.748;12.106;2022-09-03T14:00:42;28.70;55.90
12632;DHT22;6381;45.748;12.106;2022-09-03T14:03:24;30.30;55.00
12632;DHT22;6381;45.748;12.106;2022-09-03T14:06:04;29.40;56.50
12632;DHT22;6381;45.748;12.106;2022-09-03T14:08:49;28.80;57.60
12632;DHT22;6381;45.748;12.106;2022-09-03T14:11:29;29.40;57.00
12632;DHT22;6381;45.748;12.106;2022-09-03T14:14:09;30.30;56.70
12632;DHT22;6381;45.748;12.106;2022-09-03T14:16:47;30.50;55.70
12632;DHT22;6381;45.748;12.106;2022-09-03T14:19:33;30.60;55.00
12632;DHT22;6381;45.748;12.106;2022-09-03T14:22:10;29.50;56.30
12632;DHT22;6381;45.748;12.106;2022-09-03T14:24:46;28.70;57.20
12632;DHT22;6381;45.748;12.106;2022-09-03T14:27:25;28.40;59.40
12632;DHT22;6381;45.748;12.106;2022-09-03T14:29:59;28.10;58.90
12632;DHT22;6381;45.748;12.106;2022-09-03T14:32:36;28.00;58.30
12632;DHT22;6381;45.748;12.106;2022-09-03T14:35:22;27.50;58.40
12632;DHT22;6381;45.748;12.106;2022-09-03T14:41:03;27.90;62.90
12632;DHT22;6381;45.748;12.106;2022-09-03T14:46:43;28.20;64.80
12632;DHT22;6381;45.748;12.106;2022-09-03T14:49:38;28.40;63.40
12632;DHT22;6381;45.748;12.106;2022-09-03T14:55:24;30.70;62.40
12632;DHT22;6381;45.748;12.106;2022-09-03T14:58:11;31.70;58.70
12632;DHT22;6381;45.748;12.106;2022-09-03T15:00:51;31.80;56.00
12632;DHT22;6381;45.748;12.106;2022-09-03T15:03:47;29.90;60.30
12632;DHT22;6381;45.748;12.106;2022-09-03T15:06:27;29.60;60.60
12632;DHT22;6381;45.748;12.106;2022-09-03T15:09:27;30.60;61.50
12632;DHT22;6381;45.748;12.106;2022-09-03T15:12:07;29.90;63.90
12632;DHT22;6381;45.748;12.106;2022-09-03T15:14:45;29.40;63.90
12632;DHT22;6381;45.748;12.106;2022-09-03T15:17:34;29.80;63.30
12632;DHT22;6381;45.748;12.106;2022-09-03T15:20:18;29.20;64.80
12632;DHT22;6381;45.748;12.106;2022-09-03T15:23:17;28.80;65.40
12632;DHT22;6381;45.748;12.106;2022-09-03T15:26:03;29.20;66.50
12632;DHT22;6381;45.748;12.106;2022-09-03T15:28:45;29.90;65.10
12632;DHT22;6381;45.748;12.106;2022-09-03T15:31:21;30.70;63.70
12632;DHT22;6381;45.748;12.106;2022-09-03T15:34:00;30.70;63.60
12632;DHT22;6381;45.748;12.106;2022-09-03T15:36:36;30.40;62.40
12632;DHT22;6381;45.748;12.106;2022-09-03T15:39:11;30.40;63.70
12632;DHT22;6381;45.748;12.106;2022-09-03T15:41:46;30.90;63.00
12632;DHT22;6381;45.748;12.106;2022-09-03T15:44:20;30.40;63.00
12632;DHT22;6381;45.748;12.106;2022-09-03T15:46:54;29.50;64.90
12632;DHT22;6381;45.748;12.106;2022-09-03T15:49:33;29.50;64.60
12632;DHT22;6381;45.748;12.106;2022-09-03T15:52:16;28.80;65.60
12632;DHT22;6381;45.748;12.106;2022-09-03T15:54:59;28.90;65.90
12632;DHT22;6381;45.748;12.106;2022-09-03T15:57:36;28.40;67.00
12632;DHT22;6381;45.748;12.106;2022-09-03T16:00:11;28.70;67.00
12632;DHT22;6381;45.748;12.106;2022-09-03T16:02:52;28.80;67.20
12632;DHT22;6381;45.748;12.106;2022-09-03T16:05:35;28.90;67.10
12632;DHT22;6381;45.748;12.106;2022-09-03T16:08:12;29.80;65.80
12632;DHT22;6381;45.748;12.106;2022-09-03T16:10:57;29.40;64.80
12632;DHT22;6381;45.748;12.106;2022-09-03T16:13:38;29.70;64.90
12632;DHT22;6381;45.748;12.106;2022-09-03T16:16:16;27.70;67.90
12632;DHT22;6381;45.748;12.106;2022-09-03T16:18:57;27.80;69.60
12632;DHT22;6381;45.748;12.106;2022-09-03T16:21:35;28.90;68.10
12632;DHT22;6381;45.748;12.106;2022-09-03T16:24:15;29.50;66.30
12632;DHT22;6381;45.748;12.106;2022-09-03T16:26:53;29.40;65.00
12632;DHT22;6381;45.748;12.106;2022-09-03T16:29:26;29.10;66.20
12632;DHT22;6381;45.748;12.106;2022-09-03T16:32:09;28.80;67.50
12632;DHT22;6381;45.748;12.106;2022-09-03T16:34:47;29.40;66.80
12632;DHT22;6381;45.748;12.106;2022-09-03T16:37:25;29.40;66.30
12632;DHT22;6381;45.748;12.106;2022-09-03T16:40:06;28.30;67.50